Time;durP1;ratioP1;P1;durP2;ratioP2;P2;SDS_P1;SDS_P2;PMS_P1;PMS_P2;Temp;Humidity;BMP_temperature;BMP_pressure;BME280_temperature;BME280_humidity;BME280_pressure;Samples;Min_cycle;Max_cycle;Signal;HPM_P1;HPM_P2
2021/08/29 00:00:15;;;;;;;11.40;5.45;;;17.30;99.90;;;;;;5063243;28;20043;-77
2021/08/29 00:02:41;;;;;;;7.85;5.57;;;17.20;99.90;;;;;;5067244;28;20052;-78
2021/08/29 00:05:07;;;;;;;12.10;6.18;;;17.20;99.90;;;;;;5052762;28;20137;-78
2021/08/29 00:07:33;;;;;;;12.05;5.85;;;17.20;99.90;;;;;;5071408;28;20056;-78
2021/08/29 00:09:58;;;;;;;10.73;5.90;;;17.10;99.90;;;;;;5067356;28;20048;-78
2021/08/29 00:12:25;;;;;;;8.82;5.70;;;17.20;99.90;;;;;;5050651;28;20485;-77
2021/08/29 00:14:51;;;;;;;9.15;5.50;;;17.20;99.90;;;;;;5053065;28;20060;-78
2021/08/29 00:17:16;;;;;;;11.05;7.47;;;17.20;99.90;;;;;;5069701;28;20419;-78
2021/08/29 00:19:42;;;;;;;9.18;6.30;;;17.10;99.90;;;;;;5053114;28;20571;-79
2021/08/29 00:22:08;;;;;;;7.78;5.93;;;17.20;99.90;;;;;;5073874;28;20049;-79
2021/08/29 00:24:34;;;;;;;7.03;5.75;;;17.10;99.90;;;;;;5069048;28;20595;-79
2021/08/29 00:26:59;;;;;;;9.75;5.93;;;17.10;99.90;;;;;;5069615;28;20041;-78
2021/08/29 00:29:25;;;;;;;12.27;6.05;;;17.10;99.90;;;;;;5056388;28;20031;-78
2021/08/29 00:31:50;;;;;;;10.55;5.80;;;17.10;99.90;;;;;;5071853;28;20602;-79
2021/08/29 00:34:16;;;;;;;8.45;5.68;;;17.10;99.90;;;;;;5066741;28;20161;-77
2021/08/29 00:36:42;;;;;;;10.85;5.88;;;17.10;99.90;;;;;;5072734;28;20035;-79
2021/08/29 00:39:07;;;;;;;8.18;6.18;;;17.10;99.90;;;;;;5071392;28;20032;-78
2021/08/29 00:41:33;;;;;;;11.38;6.63;;;17.10;99.90;;;;;;5073219;28;20029;-78
2021/08/29 00:44:00;;;;;;;8.98;4.95;;;17.20;99.90;;;;;;5071244;28;20159;-79
2021/08/29 00:46:26;;;;;;;7.57;5.20;;;17.20;99.90;;;;;;5070774;28;20097;-79
2021/08/29 00:48:52;;;;;;;11.40;6.03;;;17.20;99.90;;;;;;5064947;28;20560;-79
2021/08/29 00:51:18;;;;;;;15.07;6.35;;;17.20;99.90;;;;;;5063155;28;20396;-79
2021/08/29 00:53:52;;;;;;;11.98;7.07;;;17.20;99.90;;;;;;5049887;28;20036;-80
2021/08/29 00:56:18;;;;;;;10.07;6.00;;;17.30;99.90;;;;;;5068194;28;20056;-79
2021/08/29 00:58:45;;;;;;;12.60;6.68;;;17.30;99.90;;;;;;5071755;28;20035;-80
2021/08/29 01:01:13;;;;;;;11.60;6.43;;;17.20;99.90;;;;;;5071194;28;20028;-79
2021/08/29 01:03:39;;;;;;;14.57;7.15;;;17.20;99.90;;;;;;5073359;28;20016;-79
2021/08/29 01:06:24;;;;;;;11.50;6.82;;;17.30;99.90;;;;;;5053620;28;20436;-80
2021/08/29 01:09:07;;;;;;;14.70;6.72;;;17.30;99.90;;;;;;5053719;28;20024;-80
2021/08/29 01:11:35;;;;;;;9.75;6.90;;;17.30;99.90;;;;;;5069274;28;20047;-79
2021/08/29 01:14:12;;;;;;;11.18;7.18;;;17.30;99.90;;;;;;5066325;28;20021;-80
2021/08/29 01:16:39;;;;;;;20.33;7.90;;;17.30;99.90;;;;;;5073555;28;20024;-80
2021/08/29 01:19:14;;;;;;;12.20;7.03;;;17.30;99.90;;;;;;5066557;28;20515;-80
2021/08/29 01:21:42;;;;;;;14.00;7.40;;;17.30;99.90;;;;;;5070773;28;20489;-79
2021/08/29 01:24:12;;;;;;;10.30;6.90;;;17.20;99.90;;;;;;5069923;28;20132;-80
2021/08/29 01:26:43;;;;;;;12.98;7.57;;;17.20;99.90;;;;;;5069178;28;20761;-79
2021/08/29 01:29:11;;;;;;;11.48;6.85;;;17.30;99.90;;;;;;5071694;28;20040;-79
2021/08/29 01:31:39;;;;;;;13.45;7.95;;;17.30;99.90;;;;;;5072667;28;20013;-80
2021/08/29 01:34:08;;;;;;;12.77;7.07;;;17.30;99.90;;;;;;5046872;28;20477;-79
2021/08/29 01:36:36;;;;;;;14.25;7.55;;;17.30;99.90;;;;;;5070703;28;20385;-80
2021/08/29 01:39:04;;;;;;;13.52;7.70;;;17.30;99.90;;;;;;5068661;28;20028;-80
2021/08/29 01:41:32;;;;;;;15.95;7.05;;;17.40;99.90;;;;;;5070398;28;20017;-79
2021/08/29 01:43:58;;;;;;;16.90;7.07;;;17.30;99.90;;;;;;5074442;28;20021;-79
2021/08/29 01:46:24;;;;;;;13.93;7.03;;;17.40;99.90;;;;;;5063680;28;20098;-79
2021/08/29 01:48:51;;;;;;;11.32;6.82;;;17.40;99.90;;;;;;5069751;28;20416;-80
2021/08/29 01:51:17;;;;;;;12.45;7.03;;;17.30;99.90;;;;;;5070897;28;20033;-79
2021/08/29 01:53:43;;;;;;;12.90;7.30;;;17.30;99.90;;;;;;5052613;28;20021;-79
2021/08/29 01:56:10;;;;;;;17.52;7.60;;;17.30;99.90;;;;;;5046609;28;20107;-79
2021/08/29 01:58:36;;;;;;;15.32;7.80;;;17.30;99.90;;;;;;5053532;28;20064;-79
2021/08/29 02:01:08;;;;;;;13.10;7.45;;;17.30;99.90;;;;;;5064377;28;20470;-79
2021/08/29 02:03:34;;;;;;;14.02;7.28;;;17.20;99.90;;;;;;5049559;28;20031;-80
2021/08/29 02:06:32;;;;;;;14.77;6.70;;;17.30;99.90;;;;;;5073152;28;20426;-79
2021/08/29 02:09:08;;;;;;;14.07;6.60;;;17.20;99.90;;;;;;5068727;28;20447;-79
2021/08/29 02:11:40;;;;;;;10.82;6.63;;;17.30;99.90;;;;;;5068444;28;20029;-79
2021/08/29 02:14:10;;;;;;;11.85;7.25;;;17.30;99.90;;;;;;5070577;28;20036;-79
2021/08/29 02:16:42;;;;;;;10.48;5.70;;;17.30;99.90;;;;;;5073911;28;20032;-79
2021/08/29 02:19:11;;;;;;;10.65;6.35;;;17.30;99.90;;;;;;5073831;28;20097;-79
2021/08/29 02:21:37;;;;;;;14.15;7.10;;;17.30;99.90;;;;;;5060046;28;20020;-79
2021/08/29 02:24:03;;;;;;;15.65;6.20;;;17.30;99.90;;;;;;5068432;28;20031;-79
2021/08/29 02:26:37;;;;;;;15.05;7.10;;;17.30;99.90;;;;;;5055398;28;20020;-79
2021/08/29 02:29:03;;;;;;;12.13;6.57;;;17.30;99.90;;;;;;5066816;28;20485;-80
2021/08/29 02:31:29;;;;;;;13.07;6.32;;;17.40;99.90;;;;;;5069370;28;20034;-79
2021/08/29 02:33:54;;;;;;;16.48;7.22;;;17.40;99.90;;;;;;5065162;28;20073;-79
2021/08/29 02:36:20;;;;;;;21.15;7.45;;;17.40;99.90;;;;;;5069254;28;20393;-79
2021/08/29 02:38:51;;;;;;;15.38;7.03;;;17.40;99.90;;;;;;5063548;28;20020;-80
2021/08/29 02:41:18;;;;;;;15.77;6.45;;;17.40;99.90;;;;;;5060621;28;20024;-79
2021/08/29 02:43:45;;;;;;;12.63;6.20;;;17.40;99.90;;;;;;5061694;28;20039;-79
2021/08/29 02:46:12;;;;;;;10.23;5.70;;;17.40;99.90;;;;;;5064696;28;20029;-79
2021/08/29 02:48:38;;;;;;;14.13;6.43;;;17.40;99.90;;;;;;5068310;28;20020;-79
2021/08/29 02:51:04;;;;;;;13.32;6.13;;;17.50;99.90;;;;;;5057597;28;20021;-79
2021/08/29 02:53:29;;;;;;;17.75;6.57;;;17.40;99.90;;;;;;5049314;28;20077;-79
2021/08/29 02:55:57;;;;;;;16.35;6.60;;;17.50;99.90;;;;;;5049715;28;20111;-80
2021/08/29 02:58:24;;;;;;;15.18;6.35;;;17.50;99.90;;;;;;5070471;28;20436;-80
2021/08/29 03:00:50;;;;;;;12.02;6.72;;;17.50;99.90;;;;;;5049808;28;20476;-80
2021/08/29 03:03:15;;;;;;;12.25;6.25;;;17.50;99.90;;;;;;5064012;28;20105;-79
2021/08/29 03:05:41;;;;;;;14.85;6.95;;;17.50;99.90;;;;;;5066773;28;20065;-80
2021/08/29 03:08:07;;;;;;;13.65;6.70;;;17.50;99.90;;;;;;5061143;28;20032;-79
2021/08/29 03:10:33;;;;;;;14.25;6.28;;;17.50;99.90;;;;;;5069687;28;20451;-79
2021/08/29 03:13:03;;;;;;;17.55;7.25;;;17.50;99.90;;;;;;5067861;28;20024;-80
2021/08/29 03:15:30;;;;;;;21.33;6.30;;;17.50;99.90;;;;;;5065038;28;20031;-80
2021/08/29 03:17:57;;;;;;;14.00;6.03;;;17.50;99.90;;;;;;5068878;28;20060;-80
2021/08/29 03:20:23;;;;;;;14.13;5.72;;;17.50;99.90;;;;;;5070463;28;20040;-80
2021/08/29 03:22:50;;;;;;;11.40;5.85;;;17.60;99.90;;;;;;5068850;28;20053;-79
2021/08/29 03:25:16;;;;;;;17.35;6.20;;;17.50;99.90;;;;;;5068845;28;20036;-80
2021/08/29 03:27:42;;;;;;;12.77;5.88;;;17.50;99.90;;;;;;5065865;28;20016;-80
2021/08/29 03:30:08;;;;;;;15.38;6.38;;;17.60;99.90;;;;;;5074892;28;20052;-81
2021/08/29 03:32:35;;;;;;;10.52;6.38;;;17.60;99.90;;;;;;5063420;28;20016;-79
2021/08/29 03:35:02;;;;;;;12.57;6.38;;;17.60;99.90;;;;;;5073383;28;20461;-80
2021/08/29 03:37:29;;;;;;;12.32;6.55;;;17.60;99.90;;;;;;5070281;28;20451;-80
2021/08/29 03:39:56;;;;;;;10.40;6.03;;;17.60;99.90;;;;;;5067257;28;20103;-80
2021/08/29 03:42:23;;;;;;;12.85;5.85;;;17.60;99.90;;;;;;5064803;28;20032;-80
2021/08/29 03:44:49;;;;;;;15.40;6.80;;;17.70;99.90;;;;;;5068158;28;20050;-80
2021/08/29 03:47:15;;;;;;;13.00;6.28;;;17.60;99.90;;;;;;5065437;28;20021;-82
2021/08/29 03:49:41;;;;;;;11.23;5.70;;;17.60;99.90;;;;;;5040521;28;20024;-81
2021/08/29 03:52:08;;;;;;;9.23;5.30;;;17.70;99.90;;;;;;5068158;28;20037;-81
2021/08/29 03:54:34;;;;;;;12.40;5.43;;;17.70;99.90;;;;;;5067142;28;20033;-81
2021/08/29 03:57:00;;;;;;;8.65;5.13;;;17.70;99.90;;;;;;5064615;28;20104;-80
2021/08/29 03:59:26;;;;;;;13.40;5.82;;;17.70;99.90;;;;;;5057182;28;20049;-81
2021/08/29 04:01:52;;;;;;;14.85;6.05;;;17.70;99.90;;;;;;5046162;28;20044;-81
2021/08/29 04:04:17;;;;;;;11.65;6.10;;;17.70;99.90;;;;;;5062214;28;20025;-81
2021/08/29 04:06:46;;;;;;;12.70;5.10;;;17.70;99.90;;;;;;5049927;28;20053;-80
2021/08/29 04:09:14;;;;;;;9.85;5.47;;;17.70;99.90;;;;;;5067114;28;20389;-80
2021/08/29 04:11:43;;;;;;;13.73;5.97;;;17.70;99.90;;;;;;5049083;28;20024;-81
2021/08/29 04:14:12;;;;;;;14.48;6.43;;;17.70;99.90;;;;;;5067933;28;20103;-80
2021/08/29 04:16:39;;;;;;;14.63;6.03;;;17.70;99.90;;;;;;5068090;28;20032;-80
2021/08/29 04:19:05;;;;;;;11.45;6.05;;;17.70;99.90;;;;;;5064663;28;20025;-80
2021/08/29 04:21:31;;;;;;;15.10;6.85;;;17.70;99.90;;;;;;5062253;28;20037;-81
2021/08/29 04:23:58;;;;;;;14.07;6.43;;;17.60;99.90;;;;;;5070334;28;20458;-80
2021/08/29 04:26:24;;;;;;;12.70;6.10;;;17.70;99.90;;;;;;5073424;28;20037;-81
2021/08/29 04:28:50;;;;;;;12.75;6.05;;;17.70;99.90;;;;;;5056110;28;20016;-81
2021/08/29 04:31:30;;;;;;;12.18;6.13;;;17.70;99.90;;;;;;5067490;28;20033;-81
2021/08/29 04:33:56;;;;;;;15.80;5.70;;;17.60;99.90;;;;;;5079535;28;20020;-81
2021/08/29 04:36:21;;;;;;;10.20;5.68;;;17.60;99.90;;;;;;5066341;28;20036;-81
2021/08/29 04:38:47;;;;;;;14.05;6.88;;;17.60;99.90;;;;;;5051004;28;20121;-81
2021/08/29 04:41:13;;;;;;;11.13;6.45;;;17.60;99.90;;;;;;5067682;28;20029;-81
2021/08/29 04:43:39;;;;;;;12.15;5.85;;;17.70;99.90;;;;;;5062992;28;20146;-81
2021/08/29 04:46:05;;;;;;;14.23;6.70;;;17.70;99.90;;;;;;5070443;28;20028;-81
2021/08/29 04:48:31;;;;;;;10.55;6.22;;;17.70;99.90;;;;;;5059935;28;20017;-80
2021/08/29 04:50:58;;;;;;;19.17;6.45;;;17.70;99.90;;;;;;5064618;28;20476;-80
2021/08/29 04:53:24;;;;;;;12.65;6.35;;;17.70;99.90;;;;;;5063063;28;20112;-81
2021/08/29 04:55:50;;;;;;;11.52;6.28;;;17.70;99.90;;;;;;5063173;28;20108;-81
2021/08/29 04:58:16;;;;;;;13.18;5.82;;;17.70;99.90;;;;;;5050960;28;20414;-80
2021/08/29 05:00:42;;;;;;;11.55;6.32;;;17.70;99.90;;;;;;5049126;28;20102;-81
2021/08/29 05:03:08;;;;;;;16.52;6.95;;;17.70;99.90;;;;;;5067218;28;20056;-80
2021/08/29 05:05:33;;;;;;;14.35;7.28;;;17.70;99.90;;;;;;5067419;28;20028;-81
2021/08/29 05:07:59;;;;;;;12.68;5.95;;;17.70;99.90;;;;;;5071788;28;20020;-80
2021/08/29 05:10:25;;;;;;;12.02;5.85;;;17.70;99.90;;;;;;5073669;28;20029;-80
2021/08/29 05:12:51;;;;;;;11.07;6.07;;;17.70;99.90;;;;;;5070327;28;20036;-81
2021/08/29 05:15:17;;;;;;;12.43;6.30;;;17.70;99.90;;;;;;5064121;28;20025;-81
2021/08/29 05:17:43;;;;;;;19.08;6.28;;;17.70;99.90;;;;;;5067140;28;20381;-82
2021/08/29 05:20:09;;;;;;;11.95;6.32;;;17.80;99.90;;;;;;5069850;28;20036;-80
2021/08/29 05:22:35;;;;;;;16.88;7.03;;;17.80;99.90;;;;;;5065690;28;20107;-81
2021/08/29 05:25:00;;;;;;;13.90;5.95;;;17.80;99.90;;;;;;5064228;28;20112;-81
2021/08/29 05:27:26;;;;;;;14.55;7.18;;;17.80;99.90;;;;;;5069893;28;20032;-81
2021/08/29 05:29:52;;;;;;;9.15;5.57;;;17.80;99.90;;;;;;5053341;28;20027;-82
2021/08/29 05:32:17;;;;;;;21.77;6.78;;;17.70;99.90;;;;;;5057798;28;20025;-83
2021/08/29 05:34:43;;;;;;;10.48;5.97;;;17.70;99.90;;;;;;5066264;28;20021;-82
2021/08/29 05:37:09;;;;;;;13.20;7.82;;;17.70;99.90;;;;;;5069190;28;20066;-86
2021/08/29 05:39:35;;;;;;;10.50;6.43;;;17.70;99.90;;;;;;5072627;28;20489;-86
2021/08/29 05:42:01;;;;;;;13.18;6.97;;;17.80;99.90;;;;;;5073323;28;20036;-82
2021/08/29 05:44:27;;;;;;;14.35;7.00;;;17.70;99.90;;;;;;5067357;28;20465;-82
2021/08/29 05:46:53;;;;;;;9.50;5.97;;;17.80;99.90;;;;;;5067554;28;20025;-81
2021/08/29 05:49:19;;;;;;;12.45;6.03;;;17.70;99.90;;;;;;5068576;28;20016;-82
2021/08/29 05:51:44;;;;;;;11.23;5.85;;;17.70;99.90;;;;;;5066872;28;20741;-82
2021/08/29 05:54:10;;;;;;;13.30;6.22;;;17.70;99.90;;;;;;5072976;28;20087;-81
2021/08/29 05:56:36;;;;;;;14.10;6.43;;;17.80;99.90;;;;;;5053099;28;20039;-82
2021/08/29 05:59:02;;;;;;;11.15;6.05;;;17.70;99.90;;;;;;5066562;28;20028;-82
2021/08/29 06:01:27;;;;;;;17.83;7.00;;;17.80;99.90;;;;;;5050494;28;20435;-81
2021/08/29 06:03:53;;;;;;;15.07;6.28;;;17.80;99.90;;;;;;5064550;28;20036;-81
2021/08/29 06:06:18;;;;;;;11.00;5.40;;;17.80;99.90;;;;;;5052399;28;20024;-82
2021/08/29 06:08:44;;;;;;;12.95;6.22;;;17.70;99.90;;;;;;5063607;28;20035;-81
2021/08/29 06:11:10;;;;;;;12.40;6.60;;;17.70;99.90;;;;;;5072696;28;20031;-82
2021/08/29 06:13:36;;;;;;;13.95;6.18;;;17.70;99.90;;;;;;5074048;28;20077;-81
2021/08/29 06:16:02;;;;;;;9.15;6.65;;;17.70;99.90;;;;;;5063356;28;20021;-81
2021/08/29 06:18:28;;;;;;;11.40;5.60;;;17.70;99.90;;;;;;5063738;28;20071;-82
2021/08/29 06:20:54;;;;;;;13.82;5.38;;;17.80;99.90;;;;;;5074918;28;20024;-81
2021/08/29 06:23:19;;;;;;;8.93;5.32;;;17.80;99.90;;;;;;5074160;28;20107;-83
2021/08/29 06:25:45;;;;;;;13.32;5.30;;;17.80;99.90;;;;;;5066938;28;20036;-83
2021/08/29 06:28:11;;;;;;;16.17;5.25;;;17.80;99.90;;;;;;5066014;28;20035;-82
2021/08/29 06:30:36;;;;;;;10.55;5.10;;;17.80;99.90;;;;;;5057432;28;20020;-82
2021/08/29 06:33:02;;;;;;;11.95;5.10;;;17.80;99.90;;;;;;5068886;28;20050;-83
2021/08/29 06:35:28;;;;;;;12.02;5.22;;;17.80;99.90;;;;;;5066204;28;20028;-82
2021/08/29 06:37:54;;;;;;;11.80;4.93;;;17.80;99.90;;;;;;5068143;28;20024;-83
2021/08/29 06:40:20;;;;;;;12.93;4.53;;;17.80;99.90;;;;;;5067291;28;20521;-83
2021/08/29 06:42:46;;;;;;;13.20;5.40;;;17.80;99.90;;;;;;5055429;28;20031;-82
2021/08/29 06:45:13;;;;;;;15.38;5.30;;;17.80;99.90;;;;;;5073167;28;20469;-82
2021/08/29 06:47:38;;;;;;;13.15;5.68;;;17.90;99.90;;;;;;5074341;28;20389;-83
2021/08/29 06:50:06;;;;;;;10.68;5.45;;;17.90;99.90;;;;;;5073582;28;20017;-84
2021/08/29 06:52:31;;;;;;;9.57;4.70;;;17.90;99.90;;;;;;5073946;28;20020;-84
2021/08/29 06:54:57;;;;;;;13.25;4.85;;;17.90;99.90;;;;;;5068724;28;20039;-84
2021/08/29 06:57:27;;;;;;;9.32;4.70;;;17.90;99.90;;;;;;5072050;28;20025;-84
2021/08/29 06:59:53;;;;;;;9.82;5.30;;;18.00;99.90;;;;;;5072746;28;20082;-83
2021/08/29 07:02:21;;;;;;;17.10;5.35;;;18.00;99.90;;;;;;5070191;28;20024;-83
2021/08/29 07:04:47;;;;;;;15.75;5.03;;;17.90;99.90;;;;;;5050745;28;20473;-84
2021/08/29 07:07:13;;;;;;;12.32;5.43;;;18.00;99.90;;;;;;5066954;28;20078;-84
2021/08/29 07:09:39;;;;;;;11.70;5.05;;;18.10;99.90;;;;;;5073206;28;20028;-83
2021/08/29 07:12:06;;;;;;;10.27;4.75;;;18.00;99.90;;;;;;5062372;28;20040;-83
2021/08/29 07:14:32;;;;;;;13.02;5.15;;;18.00;99.90;;;;;;5069752;28;20016;-84
2021/08/29 07:16:58;;;;;;;10.30;4.70;;;18.10;99.90;;;;;;5071824;28;20440;-84
2021/08/29 07:19:23;;;;;;;13.15;5.13;;;18.20;99.90;;;;;;5069538;28;20533;-83
2021/08/29 07:21:49;;;;;;;11.27;5.15;;;18.20;99.90;;;;;;5066010;28;20021;-84
2021/08/29 07:24:16;;;;;;;12.85;4.75;;;18.10;99.90;;;;;;5065414;28;20099;-84
2021/08/29 07:26:41;;;;;;;14.00;4.72;;;18.20;99.90;;;;;;5040274;28;20432;-84
2021/08/29 07:29:07;;;;;;;12.85;4.90;;;18.10;99.90;;;;;;5060599;28;20035;-84
2021/08/29 07:31:33;;;;;;;10.93;4.80;;;18.10;99.90;;;;;;5065318;28;20066;-83
2021/08/29 07:33:58;;;;;;;11.48;4.43;;;18.20;99.90;;;;;;5067569;28;20025;-83
2021/08/29 07:36:24;;;;;;;12.27;5.05;;;18.10;99.90;;;;;;5066755;28;20362;-82
2021/08/29 07:38:50;;;;;;;15.25;4.72;;;18.20;99.90;;;;;;5061808;28;20060;-81
2021/08/29 07:41:16;;;;;;;13.60;5.50;;;18.20;99.90;;;;;;5065029;28;20048;-84
2021/08/29 07:43:42;;;;;;;11.10;4.65;;;18.30;99.90;;;;;;5068359;28;20020;-84
2021/08/29 07:46:08;;;;;;;16.45;5.25;;;18.30;99.90;;;;;;5062855;28;20033;-82
2021/08/29 07:48:35;;;;;;;14.60;4.30;;;18.30;99.90;;;;;;5069393;28;20078;-83
2021/08/29 07:51:00;;;;;;;13.88;5.30;;;18.40;99.90;;;;;;5054580;28;20059;-84
2021/08/29 07:53:26;;;;;;;9.88;4.63;;;18.40;99.90;;;;;;5069829;28;20036;-84
2021/08/29 07:55:52;;;;;;;11.75;4.25;;;18.40;99.90;;;;;;5066589;28;20115;-82
2021/08/29 07:58:18;;;;;;;13.88;3.72;;;18.40;99.90;;;;;;5069975;28;20159;-84
2021/08/29 08:00:44;;;;;;;13.60;4.47;;;18.40;99.90;;;;;;5052321;28;20036;-84
2021/08/29 08:03:10;;;;;;;12.98;4.95;;;18.40;99.90;;;;;;5073936;28;20009;-84
2021/08/29 08:05:36;;;;;;;9.20;4.32;;;18.40;99.90;;;;;;5052833;28;20029;-83
2021/08/29 08:08:03;;;;;;;13.30;4.32;;;18.30;99.90;;;;;;5064316;28;20021;-80
2021/08/29 08:10:30;;;;;;;14.75;4.00;;;18.30;99.90;;;;;;5069597;28;20144;-81
2021/08/29 08:12:57;;;;;;;14.27;3.92;;;18.40;99.90;;;;;;5052531;28;20021;-82
2021/08/29 08:15:22;;;;;;;11.90;4.15;;;18.40;99.90;;;;;;5052509;28;20362;-82
2021/08/29 08:17:48;;;;;;;12.68;4.30;;;18.50;99.90;;;;;;5062321;28;20031;-82
2021/08/29 08:20:14;;;;;;;11.60;4.28;;;18.50;99.90;;;;;;5068560;28;20540;-83
2021/08/29 08:22:41;;;;;;;11.60;4.45;;;18.50;99.90;;;;;;5072883;28;20146;-82
2021/08/29 08:25:07;;;;;;;10.27;4.60;;;18.50;99.90;;;;;;5071211;28;20040;-82
2021/08/29 08:27:33;;;;;;;17.88;4.22;;;18.50;99.90;;;;;;5070493;28;21819;-81
2021/08/29 08:29:58;;;;;;;13.98;4.07;;;18.50;99.90;;;;;;5071220;28;20579;-81
2021/08/29 08:32:24;;;;;;;11.88;4.00;;;18.50;99.90;;;;;;5071128;28;20036;-81
2021/08/29 08:34:50;;;;;;;9.23;4.32;;;18.40;99.90;;;;;;5067496;28;20412;-82
2021/08/29 08:37:15;;;;;;;10.43;4.10;;;18.50;99.90;;;;;;5064277;28;20496;-83
2021/08/29 08:39:41;;;;;;;14.77;3.83;;;18.50;99.90;;;;;;5070237;28;20465;-81
2021/08/29 08:42:07;;;;;;;14.50;4.60;;;18.50;99.90;;;;;;5072344;28;20082;-81
2021/08/29 08:44:33;;;;;;;14.60;4.15;;;18.50;99.90;;;;;;5071616;28;20024;-82
2021/08/29 08:47:04;;;;;;;10.05;3.50;;;18.50;99.90;;;;;;5051343;28;20036;-82
2021/08/29 08:49:32;;;;;;;10.30;4.07;;;18.50;99.90;;;;;;5070395;28;20040;-82
2021/08/29 08:52:02;;;;;;;14.45;4.20;;;18.50;99.90;;;;;;5066695;28;20028;-82
2021/08/29 08:54:29;;;;;;;9.07;4.10;;;18.60;99.90;;;;;;5069347;28;20033;-83
2021/08/29 08:56:56;;;;;;;12.35;4.45;;;18.60;99.90;;;;;;5073699;28;20020;-83
2021/08/29 08:59:22;;;;;;;14.27;4.13;;;18.60;99.90;;;;;;5052930;28;20036;-82
2021/08/29 09:01:48;;;;;;;11.75;4.22;;;18.70;99.90;;;;;;5069694;28;20060;-82
2021/08/29 09:04:15;;;;;;;9.68;3.83;;;18.60;99.90;;;;;;5069684;28;20017;-80
2021/08/29 09:06:41;;;;;;;11.95;4.22;;;18.60;99.90;;;;;;5070612;28;20031;-81
2021/08/29 09:09:07;;;;;;;17.08;4.40;;;18.60;99.90;;;;;;5061929;28;20104;-80
2021/08/29 09:11:33;;;;;;;10.68;4.30;;;18.60;99.90;;;;;;5057706;28;20124;-81
2021/08/29 09:14:00;;;;;;;10.43;4.35;;;18.50;99.90;;;;;;5057776;28;20437;-81
2021/08/29 09:16:27;;;;;;;9.90;3.90;;;18.60;99.90;;;;;;5073011;28;20090;-80
2021/08/29 09:19:04;;;;;;;11.68;3.83;;;18.60;99.90;;;;;;5072530;28;20032;-81
2021/08/29 09:21:31;;;;;;;10.55;3.85;;;18.60;99.90;;;;;;5073439;28;20025;-80
2021/08/29 09:24:00;;;;;;;8.35;3.78;;;18.70;99.90;;;;;;5067648;28;20032;-80
2021/08/29 09:26:28;;;;;;;12.80;4.05;;;18.60;99.90;;;;;;5069108;28;20032;-80
2021/08/29 09:28:56;;;;;;;12.20;4.05;;;18.60;99.90;;;;;;5055172;28;20028;-80
2021/08/29 09:31:22;;;;;;;14.02;4.10;;;18.60;99.90;;;;;;5072418;28;20143;-80
2021/08/29 09:34:01;;;;;;;11.90;3.90;;;18.60;99.90;;;;;;5075402;28;20103;-81
2021/08/29 09:36:31;;;;;;;12.18;4.53;;;18.60;99.90;;;;;;5058321;28;20055;-79
2021/08/29 09:39:14;;;;;;;11.75;4.10;;;18.60;99.90;;;;;;5069813;28;20090;-81
2021/08/29 09:41:40;;;;;;;9.30;3.47;;;18.60;99.90;;;;;;5060928;28;20103;-81
2021/08/29 09:44:17;;;;;;;14.73;3.90;;;18.60;99.90;;;;;;5067204;28;20057;-80
2021/08/29 09:47:12;;;;;;;12.52;4.00;;;18.60;99.90;;;;;;5070298;28;20051;-81
2021/08/29 09:49:38;;;;;;;10.93;3.63;;;18.60;99.90;;;;;;5068757;28;20404;-80
2021/08/29 09:52:06;;;;;;;16.85;4.20;;;18.60;99.90;;;;;;5059764;28;20027;-82
2021/08/29 09:54:37;;;;;;;10.20;3.50;;;18.50;99.90;;;;;;5067307;28;20041;-83
2021/08/29 09:57:12;;;;;;;10.23;3.95;;;18.50;99.90;;;;;;5072231;28;20023;-83
2021/08/29 09:59:40;;;;;;;9.98;3.70;;;18.60;99.90;;;;;;5069106;28;20029;-81
2021/08/29 10:02:05;;;;;;;11.98;4.25;;;18.50;99.90;;;;;;5048798;28;20024;-80
2021/08/29 10:04:31;;;;;;;13.35;4.20;;;18.40;99.90;;;;;;5073552;28;20032;-84
2021/08/29 10:07:09;;;;;;;12.30;4.50;;;18.50;99.90;;;;;;5069386;28;20020;-85
2021/08/29 10:09:36;;;;;;;9.80;4.38;;;18.40;99.90;;;;;;5066890;28;20029;-86
2021/08/29 10:12:03;;;;;;;14.52;4.63;;;18.50;99.90;;;;;;5067756;28;20028;-85
2021/08/29 10:14:31;;;;;;;13.38;4.45;;;18.60;99.90;;;;;;5071446;28;20032;-84
2021/08/29 10:16:58;;;;;;;9.05;4.47;;;18.50;99.90;;;;;;5065088;28;20489;-80
2021/08/29 10:19:25;;;;;;;11.63;4.82;;;18.60;99.90;;;;;;5066756;28;20382;-76
2021/08/29 10:21:52;;;;;;;16.77;5.20;;;18.60;99.90;;;;;;5072145;28;20373;-78
2021/08/29 10:24:20;;;;;;;15.80;4.97;;;18.70;99.90;;;;;;5067659;28;20032;-84
2021/08/29 10:26:50;;;;;;;18.63;5.22;;;18.60;99.90;;;;;;5070502;28;20020;-84
2021/08/29 10:29:19;;;;;;;10.45;4.03;;;18.60;99.90;;;;;;5074770;28;20021;-78
2021/08/29 10:32:05;;;;;;;11.75;4.32;;;18.50;99.90;;;;;;5072506;28;20032;-81
2021/08/29 10:34:32;;;;;;;9.07;4.57;;;18.60;99.90;;;;;;5061343;28;20047;-83
2021/08/29 10:36:58;;;;;;;10.25;4.93;;;18.50;99.90;;;;;;5054179;28;20540;-82
2021/08/29 10:39:24;;;;;;;10.75;4.80;;;18.60;99.90;;;;;;5070885;28;20040;-80
2021/08/29 10:41:52;;;;;;;10.48;4.57;;;18.60;99.90;;;;;;5069654;28;20039;-80
2021/08/29 10:44:18;;;;;;;12.10;4.57;;;18.60;99.90;;;;;;5071337;28;20044;-82
2021/08/29 10:46:46;;;;;;;12.82;4.15;;;18.70;99.90;;;;;;5074090;28;20020;-87
2021/08/29 10:49:14;;;;;;;10.18;3.80;;;18.70;99.90;;;;;;5071809;28;20020;-87
2021/08/29 10:51:41;;;;;;;12.95;4.28;;;18.70;99.90;;;;;;5048041;28;20033;-84
2021/08/29 10:54:12;;;;;;;12.02;3.65;;;18.70;99.90;;;;;;5048052;28;20020;-84
2021/08/29 10:56:40;;;;;;;11.20;4.25;;;18.60;99.90;;;;;;5070684;28;20024;-82
2021/08/29 10:59:09;;;;;;;10.88;4.07;;;18.70;99.90;;;;;;5032555;28;20074;-82
2021/08/29 11:01:45;;;;;;;11.70;4.05;;;18.70;99.90;;;;;;5069665;28;20051;-84
2021/08/29 11:04:26;;;;;;;13.20;4.18;;;18.80;99.90;;;;;;5071075;28;20021;-86
2021/08/29 11:06:54;;;;;;;11.23;4.22;;;18.80;99.90;;;;;;5067974;28;20143;-84
2021/08/29 11:09:33;;;;;;;10.10;3.67;;;18.90;99.90;;;;;;5064881;28;20057;-83
2021/08/29 11:12:00;;;;;;;8.90;3.53;;;18.80;99.90;;;;;;5050645;28;20516;-84
2021/08/29 11:14:53;;;;;;;15.00;4.40;;;18.80;99.90;;;;;;5064990;28;20031;-82
2021/08/29 11:17:23;;;;;;;12.80;3.85;;;18.70;99.90;;;;;;5068198;28;20469;-83
2021/08/29 11:19:51;;;;;;;11.73;4.65;;;18.80;99.90;;;;;;5066034;28;20080;-82
2021/08/29 11:22:25;;;;;;;12.13;4.43;;;18.70;99.90;;;;;;5052913;28;20029;-82
2021/08/29 11:24:54;;;;;;;11.05;4.30;;;18.80;99.90;;;;;;5070517;28;20090;-77
2021/08/29 11:27:35;;;;;;;12.65;4.47;;;18.70;99.90;;;;;;5051808;28;20365;-81
2021/08/29 11:30:22;;;;;;;9.73;4.13;;;18.70;99.90;;;;;;5064709;28;20024;-79
2021/08/29 11:32:56;;;;;;;12.18;3.85;;;18.80;99.90;;;;;;5070408;28;20082;-80
2021/08/29 11:35:23;;;;;;;10.25;3.95;;;18.80;99.90;;;;;;5072591;28;20104;-79
2021/08/29 11:38:31;;;;;;;13.77;4.75;;;18.90;99.90;;;;;;5071724;28;20461;-79
2021/08/29 11:41:17;;;;;;;14.25;4.60;;;18.90;99.90;;;;;;5072182;28;20044;-79
2021/08/29 11:43:46;;;;;;;9.93;4.15;;;19.00;99.90;;;;;;5061059;28;20560;-79
2021/08/29 11:46:22;;;;;;;11.75;4.65;;;19.00;99.90;;;;;;5070562;28;20506;-80
2021/08/29 11:48:59;;;;;;;12.75;4.85;;;18.90;99.90;;;;;;5047888;28;20025;-79
2021/08/29 11:51:31;;;;;;;12.82;4.18;;;18.80;99.90;;;;;;5054526;28;20062;-76
2021/08/29 11:54:01;;;;;;;13.40;4.27;;;18.80;99.90;;;;;;5068379;28;20037;-78
2021/08/29 11:56:30;;;;;;;10.50;4.20;;;18.80;99.90;;;;;;5047050;28;20055;-79
2021/08/29 11:59:00;;;;;;;14.65;5.03;;;18.80;99.90;;;;;;5062352;28;20045;-79
2021/08/29 12:01:26;;;;;;;17.48;4.80;;;18.80;99.90;;;;;;5054393;28;20127;-80
2021/08/29 12:04:00;;;;;;;13.20;4.68;;;18.80;99.90;;;;;;5065903;28;20096;-81
2021/08/29 12:06:45;;;;;;;12.38;4.68;;;18.70;99.90;;;;;;5068793;28;20481;-81
2021/08/29 12:09:27;;;;;;;14.57;4.82;;;18.70;99.90;;;;;;5070431;28;20025;-79
2021/08/29 12:11:53;;;;;;;13.18;4.18;;;18.70;99.90;;;;;;5062575;28;20350;-86
2021/08/29 12:14:22;;;;;;;13.02;4.57;;;18.80;99.90;;;;;;5033433;28;20027;-84
2021/08/29 12:16:57;;;;;;;14.57;4.70;;;18.80;99.90;;;;;;5071403;28;20043;-82
2021/08/29 12:19:32;;;;;;;13.82;4.95;;;18.80;99.90;;;;;;5075723;28;20032;-79
2021/08/29 12:21:59;;;;;;;11.90;5.20;;;18.80;99.90;;;;;;5045880;28;20028;-80
2021/08/29 12:24:27;;;;;;;11.70;4.82;;;18.70;99.90;;;;;;5071956;28;20430;-79
2021/08/29 12:27:08;;;;;;;16.83;4.78;;;18.80;99.90;;;;;;5069286;28;20473;-76
2021/08/29 12:29:54;;;;;;;8.90;4.03;;;18.80;99.90;;;;;;5069863;28;20016;-77
2021/08/29 12:32:29;;;;;;;13.48;5.15;;;18.70;99.90;;;;;;5067071;28;20050;-76
2021/08/29 12:34:58;;;;;;;11.40;4.82;;;18.70;99.90;;;;;;5075058;28;20044;-79
2021/08/29 12:37:25;;;;;;;11.80;4.97;;;18.70;99.90;;;;;;5068420;28;20029;-78
2021/08/29 12:39:59;;;;;;;12.75;5.25;;;18.60;99.90;;;;;;5066191;28;20029;-78
2021/08/29 12:42:27;;;;;;;13.30;5.50;;;18.70;99.90;;;;;;5052340;28;20057;-76